Nashua River @ East Pepperell, Ma

Nashua River at East Pepperell
 Total Drainage Area: 316 sq. miles 
 Drainage Area Controlled by Corps Dams: 0 sq. miles (0%) 
 Warning Flow/Stage: 2,990 cfs / 6.5 feet 
 Flood Flow/Stage: 4,080 cfs / 8.0 feet 
Date Time
(Eastern)
Stage
(ft)
Flow
(cfs)
CSM
(cfs / sq. mi.)
Apr-23 11:30 am 3.11 957 3.0
Apr-23 10:30 am 3.09 946 3.0
Apr-23 09:30 am 3.07 935 3.0
Apr-23 08:30 am 3.62 1,259 4.0
Apr-23 07:30 am 3.63 1,265 4.0
Apr-23 06:30 am 3.62 1,259 4.0
Apr-23 05:30 am 3.63 1,265 4.0
Apr-23 04:30 am 3.64 1,271 4.0
Apr-23 03:30 am 3.64 1,271 4.0
Apr-23 02:30 am 3.66 1,284 4.1
Apr-23 01:30 am 3.66 1,284 4.1
Apr-23 12:30 am 3.68 1,295 4.1
Apr-22 11:30 pm 3.68 1,295 4.1
Apr-22 10:30 pm 3.69 1,301 4.1
Apr-22 09:30 pm 3.68 1,295 4.1
Apr-22 08:30 pm 3.70 1,307 4.1
Apr-22 07:30 pm 3.71 1,313 4.2
Apr-22 06:30 pm 3.70 1,307 4.1
Apr-22 05:30 pm 3.71 1,313 4.2
Apr-22 04:30 pm 3.70 1,307 4.1
Apr-22 03:30 pm 3.72 1,319 4.2
Apr-22 02:30 pm 3.72 1,319 4.2
Apr-22 01:30 pm 3.76 1,343 4.3
Apr-22 12:30 pm 3.77 1,349 4.3
Apr-22 11:30 am 3.75 1,337 4.2
Report Generated April 23, 2024 01:00 pm